sensor_id;sensor_type;location;lat;lon;timestamp;P1;durP1;ratioP1;P2;durP2;ratioP2
74957;SDS011;63741;42.624;26.276;2023-02-15T00:01:54;13.98;;;8.63;;
74957;SDS011;63741;42.624;26.276;2023-02-15T00:04:22;16.85;;;8.65;;
74957;SDS011;63741;42.624;26.276;2023-02-15T00:06:50;13.95;;;8.55;;
74957;SDS011;63741;42.624;26.276;2023-02-15T00:09:17;15.32;;;9.00;;
74957;SDS011;63741;42.624;26.276;2023-02-15T00:11:44;13.75;;;8.25;;
74957;SDS011;63741;42.624;26.276;2023-02-15T00:14:20;14.07;;;8.32;;
74957;SDS011;63741;42.624;26.276;2023-02-15T00:19:17;16.60;;;8.10;;
74957;SDS011;63741;42.624;26.276;2023-02-15T00:21:45;16.38;;;8.18;;
74957;SDS011;63741;42.624;26.276;2023-02-15T00:24:14;13.90;;;8.68;;
74957;SDS011;63741;42.624;26.276;2023-02-15T00:26:42;14.93;;;8.63;;
74957;SDS011;63741;42.624;26.276;2023-02-15T00:29:10;13.77;;;8.48;;
74957;SDS011;63741;42.624;26.276;2023-02-15T00:31:38;15.32;;;8.45;;
74957;SDS011;63741;42.624;26.276;2023-02-15T00:34:06;15.90;;;9.07;;
74957;SDS011;63741;42.624;26.276;2023-02-15T00:36:44;13.77;;;8.50;;
74957;SDS011;63741;42.624;26.276;2023-02-15T00:39:13;15.60;;;8.68;;
74957;SDS011;63741;42.624;26.276;2023-02-15T00:41:42;14.65;;;8.75;;
74957;SDS011;63741;42.624;26.276;2023-02-15T00:44:10;14.40;;;9.07;;
74957;SDS011;63741;42.624;26.276;2023-02-15T00:46:37;14.75;;;9.35;;
74957;SDS011;63741;42.624;26.276;2023-02-15T00:49:07;14.98;;;8.88;;
74957;SDS011;63741;42.624;26.276;2023-02-15T00:51:36;13.50;;;8.73;;
74957;SDS011;63741;42.624;26.276;2023-02-15T00:54:04;14.57;;;9.02;;
74957;SDS011;63741;42.624;26.276;2023-02-15T00:56:31;15.75;;;9.40;;
74957;SDS011;63741;42.624;26.276;2023-02-15T00:58:58;14.80;;;9.15;;
74957;SDS011;63741;42.624;26.276;2023-02-15T01:01:25;15.85;;;9.20;;
74957;SDS011;63741;42.624;26.276;2023-02-15T01:03:52;15.75;;;9.90;;
74957;SDS011;63741;42.624;26.276;2023-02-15T01:06:19;15.18;;;8.90;;
74957;SDS011;63741;42.624;26.276;2023-02-15T01:08:46;15.80;;;9.00;;
74957;SDS011;63741;42.624;26.276;2023-02-15T01:11:15;15.13;;;9.27;;
74957;SDS011;63741;42.624;26.276;2023-02-15T01:13:53;15.25;;;9.07;;
74957;SDS011;63741;42.624;26.276;2023-02-15T01:16:22;15.20;;;9.02;;
74957;SDS011;63741;42.624;26.276;2023-02-15T01:18:51;15.18;;;9.52;;
74957;SDS011;63741;42.624;26.276;2023-02-15T01:21:19;15.93;;;9.95;;
74957;SDS011;63741;42.624;26.276;2023-02-15T01:23:47;18.55;;;9.82;;
74957;SDS011;63741;42.624;26.276;2023-02-15T01:26:14;16.08;;;9.55;;
74957;SDS011;63741;42.624;26.276;2023-02-15T01:28:43;16.65;;;9.88;;
74957;SDS011;63741;42.624;26.276;2023-02-15T01:31:11;17.25;;;9.95;;
74957;SDS011;63741;42.624;26.276;2023-02-15T01:33:40;18.10;;;10.82;;
74957;SDS011;63741;42.624;26.276;2023-02-15T01:36:08;19.70;;;10.82;;
74957;SDS011;63741;42.624;26.276;2023-02-15T01:38:37;18.83;;;10.90;;
74957;SDS011;63741;42.624;26.276;2023-02-15T01:41:06;17.15;;;9.52;;
74957;SDS011;63741;42.624;26.276;2023-02-15T01:43:57;18.27;;;10.10;;
74957;SDS011;63741;42.624;26.276;2023-02-15T01:46:27;19.35;;;10.38;;
74957;SDS011;63741;42.624;26.276;2023-02-15T01:49:02;17.38;;;10.00;;
74957;SDS011;63741;42.624;26.276;2023-02-15T01:51:34;18.33;;;9.90;;
74957;SDS011;63741;42.624;26.276;2023-02-15T01:56:52;16.83;;;9.95;;
74957;SDS011;63741;42.624;26.276;2023-02-15T01:59:24;16.48;;;9.75;;
74957;SDS011;63741;42.624;26.276;2023-02-15T02:01:52;16.23;;;9.85;;
74957;SDS011;63741;42.624;26.276;2023-02-15T02:04:31;18.83;;;10.50;;
74957;SDS011;63741;42.624;26.276;2023-02-15T02:07:02;18.63;;;10.55;;
74957;SDS011;63741;42.624;26.276;2023-02-15T02:09:31;16.83;;;10.38;;
74957;SDS011;63741;42.624;26.276;2023-02-15T02:11:58;15.80;;;9.90;;
74957;SDS011;63741;42.624;26.276;2023-02-15T02:14:26;18.70;;;9.82;;
74957;SDS011;63741;42.624;26.276;2023-02-15T02:28:29;22.10;;;12.00;;
74957;SDS011;63741;42.624;26.276;2023-02-15T02:42:35;20.83;;;11.80;;
74957;SDS011;63741;42.624;26.276;2023-02-15T02:45:25;19.35;;;10.68;;
74957;SDS011;63741;42.624;26.276;2023-02-15T02:47:59;17.20;;;10.23;;
74957;SDS011;63741;42.624;26.276;2023-02-15T02:50:34;21.42;;;11.27;;
74957;SDS011;63741;42.624;26.276;2023-02-15T02:53:01;20.05;;;12.10;;
74957;SDS011;63741;42.624;26.276;2023-02-15T02:58:29;23.60;;;12.57;;
74957;SDS011;63741;42.624;26.276;2023-02-15T03:01:12;21.50;;;11.95;;
74957;SDS011;63741;42.624;26.276;2023-02-15T03:03:47;21.85;;;12.27;;
74957;SDS011;63741;42.624;26.276;2023-02-15T03:06:22;23.08;;;12.77;;
74957;SDS011;63741;42.624;26.276;2023-02-15T03:09:18;20.75;;;11.95;;
74957;SDS011;63741;42.624;26.276;2023-02-15T03:11:50;19.50;;;12.65;;
74957;SDS011;63741;42.624;26.276;2023-02-15T03:14:19;23.92;;;12.52;;
74957;SDS011;63741;42.624;26.276;2023-02-15T03:16:47;21.27;;;11.70;;
74957;SDS011;63741;42.624;26.276;2023-02-15T03:19:19;22.88;;;12.80;;
74957;SDS011;63741;42.624;26.276;2023-02-15T03:22:13;28.48;;;13.73;;
74957;SDS011;63741;42.624;26.276;2023-02-15T03:24:51;27.50;;;13.10;;
74957;SDS011;63741;42.624;26.276;2023-02-15T03:27:35;21.70;;;11.55;;
74957;SDS011;63741;42.624;26.276;2023-02-15T03:30:07;19.38;;;10.77;;
74957;SDS011;63741;42.624;26.276;2023-02-15T03:32:37;20.88;;;11.55;;
74957;SDS011;63741;42.624;26.276;2023-02-15T03:35:07;18.27;;;11.05;;
74957;SDS011;63741;42.624;26.276;2023-02-15T03:37:39;21.80;;;11.30;;
74957;SDS011;63741;42.624;26.276;2023-02-15T03:40:31;21.75;;;11.90;;
74957;SDS011;63741;42.624;26.276;2023-02-15T03:43:30;20.00;;;10.80;;
74957;SDS011;63741;42.624;26.276;2023-02-15T03:46:01;19.25;;;10.68;;
74957;SDS011;63741;42.624;26.276;2023-02-15T03:48:39;25.95;;;12.15;;
74957;SDS011;63741;42.624;26.276;2023-02-15T03:51:12;17.85;;;10.57;;
74957;SDS011;63741;42.624;26.276;2023-02-15T03:56:41;20.95;;;10.98;;
74957;SDS011;63741;42.624;26.276;2023-02-15T03:59:29;17.85;;;10.23;;
74957;SDS011;63741;42.624;26.276;2023-02-15T04:02:21;19.25;;;11.27;;
74957;SDS011;63741;42.624;26.276;2023-02-15T04:04:54;19.45;;;11.23;;
74957;SDS011;63741;42.624;26.276;2023-02-15T04:07:21;19.40;;;11.10;;
74957;SDS011;63741;42.624;26.276;2023-02-15T04:09:48;20.92;;;12.38;;
74957;SDS011;63741;42.624;26.276;2023-02-15T04:12:33;26.20;;;13.35;;
74957;SDS011;63741;42.624;26.276;2023-02-15T04:15:00;22.10;;;12.38;;
74957;SDS011;63741;42.624;26.276;2023-02-15T04:17:45;21.38;;;11.80;;
74957;SDS011;63741;42.624;26.276;2023-02-15T04:20:12;21.85;;;12.77;;
74957;SDS011;63741;42.624;26.276;2023-02-15T04:22:57;24.55;;;13.35;;
74957;SDS011;63741;42.624;26.276;2023-02-15T04:25:43;18.80;;;10.98;;
74957;SDS011;63741;42.624;26.276;2023-02-15T04:28:10;18.10;;;10.85;;
74957;SDS011;63741;42.624;26.276;2023-02-15T04:30:37;21.75;;;11.27;;
74957;SDS011;63741;42.624;26.276;2023-02-15T04:33:04;19.15;;;11.23;;
74957;SDS011;63741;42.624;26.276;2023-02-15T04:35:30;21.05;;;11.55;;
74957;SDS011;63741;42.624;26.276;2023-02-15T04:37:58;20.15;;;10.68;;
74957;SDS011;63741;42.624;26.276;2023-02-15T04:40:25;19.98;;;11.18;;
74957;SDS011;63741;42.624;26.276;2023-02-15T04:42:52;25.15;;;13.40;;
74957;SDS011;63741;42.624;26.276;2023-02-15T04:45:19;25.92;;;14.05;;
74957;SDS011;63741;42.624;26.276;2023-02-15T04:47:45;20.42;;;11.13;;
74957;SDS011;63741;42.624;26.276;2023-02-15T04:50:12;23.45;;;12.80;;
74957;SDS011;63741;42.624;26.276;2023-02-15T04:52:39;21.13;;;12.65;;
74957;SDS011;63741;42.624;26.276;2023-02-15T04:55:06;20.65;;;11.82;;
74957;SDS011;63741;42.624;26.276;2023-02-15T04:57:33;20.88;;;12.30;;
74957;SDS011;63741;42.624;26.276;2023-02-15T05:00:00;24.35;;;12.90;;
74957;SDS011;63741;42.624;26.276;2023-02-15T05:02:27;22.27;;;12.85;;
74957;SDS011;63741;42.624;26.276;2023-02-15T05:04:54;23.05;;;12.93;;
74957;SDS011;63741;42.624;26.276;2023-02-15T05:07:21;20.55;;;10.90;;
74957;SDS011;63741;42.624;26.276;2023-02-15T05:09:48;20.00;;;11.25;;
74957;SDS011;63741;42.624;26.276;2023-02-15T05:12:15;24.52;;;12.18;;
74957;SDS011;63741;42.624;26.276;2023-02-15T05:14:42;24.40;;;10.43;;
74957;SDS011;63741;42.624;26.276;2023-02-15T05:17:08;29.67;;;14.30;;
74957;SDS011;63741;42.624;26.276;2023-02-15T05:19:35;24.50;;;10.63;;
74957;SDS011;63741;42.624;26.276;2023-02-15T05:22:03;25.42;;;11.63;;
74957;SDS011;63741;42.624;26.276;2023-02-15T05:24:30;35.42;;;16.38;;
74957;SDS011;63741;42.624;26.276;2023-02-15T05:27:15;25.02;;;13.63;;
74957;SDS011;63741;42.624;26.276;2023-02-15T05:30:01;31.67;;;14.40;;
74957;SDS011;63741;42.624;26.276;2023-02-15T05:32:28;26.10;;;11.68;;
74957;SDS011;63741;42.624;26.276;2023-02-15T05:34:55;31.70;;;12.48;;
74957;SDS011;63741;42.624;26.276;2023-02-15T05:37:22;35.28;;;12.00;;
74957;SDS011;63741;42.624;26.276;2023-02-15T05:39:49;28.83;;;12.38;;
74957;SDS011;63741;42.624;26.276;2023-02-15T05:42:16;32.00;;;13.20;;
74957;SDS011;63741;42.624;26.276;2023-02-15T05:44:43;35.70;;;13.77;;
74957;SDS011;63741;42.624;26.276;2023-02-15T05:47:09;30.63;;;14.10;;
74957;SDS011;63741;42.624;26.276;2023-02-15T05:49:36;30.60;;;14.05;;
74957;SDS011;63741;42.624;26.276;2023-02-15T05:52:03;52.78;;;18.88;;
74957;SDS011;63741;42.624;26.276;2023-02-15T05:54:30;166.57;;;49.70;;
74957;SDS011;63741;42.624;26.276;2023-02-15T05:56:57;172.98;;;55.83;;
74957;SDS011;63741;42.624;26.276;2023-02-15T05:59:24;164.90;;;48.75;;
74957;SDS011;63741;42.624;26.276;2023-02-15T06:01:51;121.40;;;34.63;;
74957;SDS011;63741;42.624;26.276;2023-02-15T06:04:18;80.53;;;28.15;;
74957;SDS011;63741;42.624;26.276;2023-02-15T06:06:45;61.60;;;20.58;;
74957;SDS011;63741;42.624;26.276;2023-02-15T06:09:12;45.47;;;20.15;;
74957;SDS011;63741;42.624;26.276;2023-02-15T06:11:40;65.85;;;23.23;;
74957;SDS011;63741;42.624;26.276;2023-02-15T06:14:06;108.53;;;28.88;;
74957;SDS011;63741;42.624;26.276;2023-02-15T06:16:33;64.97;;;22.52;;
74957;SDS011;63741;42.624;26.276;2023-02-15T06:19:00;42.58;;;18.73;;
74957;SDS011;63741;42.624;26.276;2023-02-15T06:21:28;54.00;;;24.45;;
74957;SDS011;63741;42.624;26.276;2023-02-15T06:23:56;87.97;;;39.28;;
74957;SDS011;63741;42.624;26.276;2023-02-15T06:26:23;61.63;;;29.13;;
74957;SDS011;63741;42.624;26.276;2023-02-15T06:28:50;58.72;;;21.42;;
74957;SDS011;63741;42.624;26.276;2023-02-15T06:31:17;64.60;;;22.08;;
74957;SDS011;63741;42.624;26.276;2023-02-15T06:33:43;44.97;;;17.33;;
74957;SDS011;63741;42.624;26.276;2023-02-15T06:36:10;48.65;;;26.23;;
74957;SDS011;63741;42.624;26.276;2023-02-15T06:38:38;52.60;;;26.55;;
74957;SDS011;63741;42.624;26.276;2023-02-15T06:41:05;60.58;;;24.08;;
74957;SDS011;63741;42.624;26.276;2023-02-15T06:43:32;90.75;;;25.58;;
74957;SDS011;63741;42.624;26.276;2023-02-15T06:46:00;63.55;;;33.90;;
74957;SDS011;63741;42.624;26.276;2023-02-15T06:48:28;56.03;;;31.33;;
74957;SDS011;63741;42.624;26.276;2023-02-15T06:50:55;45.88;;;18.17;;
74957;SDS011;63741;42.624;26.276;2023-02-15T06:53:22;30.38;;;15.50;;
74957;SDS011;63741;42.624;26.276;2023-02-15T06:55:48;29.58;;;14.57;;
74957;SDS011;63741;42.624;26.276;2023-02-15T06:58:15;25.60;;;12.52;;
74957;SDS011;63741;42.624;26.276;2023-02-15T07:00:42;24.55;;;13.10;;
74957;SDS011;63741;42.624;26.276;2023-02-15T07:03:09;21.83;;;12.00;;
74957;SDS011;63741;42.624;26.276;2023-02-15T07:05:39;32.33;;;12.00;;
74957;SDS011;63741;42.624;26.276;2023-02-15T07:08:06;29.23;;;12.73;;
74957;SDS011;63741;42.624;26.276;2023-02-15T07:10:33;27.73;;;12.90;;
74957;SDS011;63741;42.624;26.276;2023-02-15T07:13:00;21.27;;;11.18;;
74957;SDS011;63741;42.624;26.276;2023-02-15T07:15:26;28.00;;;13.57;;
74957;SDS011;63741;42.624;26.276;2023-02-15T07:17:53;21.92;;;11.63;;
74957;SDS011;63741;42.624;26.276;2023-02-15T07:20:21;24.30;;;11.02;;
74957;SDS011;63741;42.624;26.276;2023-02-15T07:22:49;17.60;;;9.82;;
74957;SDS011;63741;42.624;26.276;2023-02-15T07:25:17;25.23;;;12.05;;
74957;SDS011;63741;42.624;26.276;2023-02-15T07:27:44;21.88;;;11.85;;
74957;SDS011;63741;42.624;26.276;2023-02-15T07:30:13;22.83;;;12.38;;
74957;SDS011;63741;42.624;26.276;2023-02-15T07:32:42;21.00;;;11.07;;
74957;SDS011;63741;42.624;26.276;2023-02-15T07:35:30;33.55;;;11.68;;
74957;SDS011;63741;42.624;26.276;2023-02-15T07:37:58;22.17;;;11.18;;
74957;SDS011;63741;42.624;26.276;2023-02-15T07:40:25;24.85;;;10.93;;
74957;SDS011;63741;42.624;26.276;2023-02-15T07:42:52;24.65;;;11.27;;
74957;SDS011;63741;42.624;26.276;2023-02-15T07:45:21;22.60;;;10.98;;
74957;SDS011;63741;42.624;26.276;2023-02-15T07:47:48;23.65;;;10.88;;
74957;SDS011;63741;42.624;26.276;2023-02-15T07:50:15;22.70;;;10.45;;
74957;SDS011;63741;42.624;26.276;2023-02-15T07:52:42;24.73;;;10.93;;
74957;SDS011;63741;42.624;26.276;2023-02-15T07:55:09;23.23;;;11.25;;
74957;SDS011;63741;42.624;26.276;2023-02-15T07:57:42;20.67;;;10.40;;
74957;SDS011;63741;42.624;26.276;2023-02-15T08:00:11;19.10;;;9.60;;
74957;SDS011;63741;42.624;26.276;2023-02-15T08:02:39;18.80;;;10.10;;
74957;SDS011;63741;42.624;26.276;2023-02-15T08:05:06;21.67;;;11.82;;
74957;SDS011;63741;42.624;26.276;2023-02-15T08:07:34;38.88;;;11.98;;
74957;SDS011;63741;42.624;26.276;2023-02-15T08:10:00;27.95;;;12.88;;
74957;SDS011;63741;42.624;26.276;2023-02-15T08:12:28;21.90;;;12.40;;
74957;SDS011;63741;42.624;26.276;2023-02-15T08:14:55;18.30;;;10.32;;
74957;SDS011;63741;42.624;26.276;2023-02-15T08:17:22;17.45;;;10.23;;
74957;SDS011;63741;42.624;26.276;2023-02-15T08:19:49;17.58;;;9.70;;
74957;SDS011;63741;42.624;26.276;2023-02-15T08:22:16;15.90;;;9.77;;
74957;SDS011;63741;42.624;26.276;2023-02-15T08:24:43;34.80;;;16.45;;
74957;SDS011;63741;42.624;26.276;2023-02-15T08:27:10;40.95;;;19.15;;
74957;SDS011;63741;42.624;26.276;2023-02-15T08:29:37;23.40;;;10.05;;
74957;SDS011;63741;42.624;26.276;2023-02-15T08:32:06;24.05;;;12.88;;
74957;SDS011;63741;42.624;26.276;2023-02-15T08:34:36;30.77;;;18.15;;
74957;SDS011;63741;42.624;26.276;2023-02-15T08:37:05;21.65;;;11.80;;
74957;SDS011;63741;42.624;26.276;2023-02-15T08:39:32;15.75;;;9.43;;
74957;SDS011;63741;42.624;26.276;2023-02-15T08:42:00;18.90;;;11.35;;
74957;SDS011;63741;42.624;26.276;2023-02-15T08:44:27;21.00;;;14.50;;
74957;SDS011;63741;42.624;26.276;2023-02-15T08:46:54;21.10;;;11.27;;
74957;SDS011;63741;42.624;26.276;2023-02-15T08:49:21;20.83;;;12.80;;
74957;SDS011;63741;42.624;26.276;2023-02-15T08:51:48;21.38;;;8.95;;
74957;SDS011;63741;42.624;26.276;2023-02-15T08:54:20;20.73;;;10.40;;
74957;SDS011;63741;42.624;26.276;2023-02-15T08:56:48;20.52;;;9.40;;
74957;SDS011;63741;42.624;26.276;2023-02-15T08:59:18;14.82;;;8.20;;
74957;SDS011;63741;42.624;26.276;2023-02-15T09:01:48;26.13;;;9.82;;
74957;SDS011;63741;42.624;26.276;2023-02-15T09:04:16;14.98;;;8.05;;
74957;SDS011;63741;42.624;26.276;2023-02-15T09:06:44;17.30;;;8.23;;
74957;SDS011;63741;42.624;26.276;2023-02-15T09:09:14;14.85;;;9.00;;
74957;SDS011;63741;42.624;26.276;2023-02-15T09:11:43;22.70;;;8.55;;
74957;SDS011;63741;42.624;26.276;2023-02-15T09:14:16;14.80;;;8.63;;
74957;SDS011;63741;42.624;26.276;2023-02-15T09:16:46;13.68;;;7.57;;
74957;SDS011;63741;42.624;26.276;2023-02-15T09:19:16;12.63;;;8.45;;
74957;SDS011;63741;42.624;26.276;2023-02-15T09:21:44;13.85;;;7.85;;
74957;SDS011;63741;42.624;26.276;2023-02-15T09:24:12;15.18;;;7.63;;
74957;SDS011;63741;42.624;26.276;2023-02-15T09:26:41;18.20;;;8.77;;
74957;SDS011;63741;42.624;26.276;2023-02-15T09:29:10;14.90;;;8.93;;
74957;SDS011;63741;42.624;26.276;2023-02-15T09:31:40;15.07;;;8.77;;
74957;SDS011;63741;42.624;26.276;2023-02-15T09:34:11;19.08;;;9.68;;
74957;SDS011;63741;42.624;26.276;2023-02-15T09:36:40;17.30;;;8.90;;
74957;SDS011;63741;42.624;26.276;2023-02-15T09:39:11;15.95;;;9.30;;
74957;SDS011;63741;42.624;26.276;2023-02-15T09:47:25;16.50;;;9.35;;
74957;SDS011;63741;42.624;26.276;2023-02-15T10:04:32;15.82;;;9.00;;
74957;SDS011;63741;42.624;26.276;2023-02-15T10:09:59;15.00;;;9.38;;
74957;SDS011;63741;42.624;26.276;2023-02-15T10:12:36;13.05;;;7.53;;
74957;SDS011;63741;42.624;26.276;2023-02-15T10:26:43;14.73;;;8.77;;
74957;SDS011;63741;42.624;26.276;2023-02-15T10:29:24;13.82;;;7.97;;
74957;SDS011;63741;42.624;26.276;2023-02-15T10:32:05;19.33;;;9.77;;
74957;SDS011;63741;42.624;26.276;2023-02-15T10:34:58;20.88;;;9.43;;
74957;SDS011;63741;42.624;26.276;2023-02-15T10:40:21;15.90;;;9.20;;
74957;SDS011;63741;42.624;26.276;2023-02-15T10:51:18;15.10;;;8.63;;
74957;SDS011;63741;42.624;26.276;2023-02-15T11:05:00;17.75;;;8.90;;
74957;SDS011;63741;42.624;26.276;2023-02-15T11:07:33;12.95;;;8.07;;
74957;SDS011;63741;42.624;26.276;2023-02-15T11:13:17;13.57;;;8.60;;
74957;SDS011;63741;42.624;26.276;2023-02-15T11:16:08;16.42;;;8.35;;
74957;SDS011;63741;42.624;26.276;2023-02-15T11:18:55;33.17;;;9.90;;
74957;SDS011;63741;42.624;26.276;2023-02-15T11:21:33;24.65;;;8.57;;
74957;SDS011;63741;42.624;26.276;2023-02-15T11:24:12;14.07;;;8.38;;
74957;SDS011;63741;42.624;26.276;2023-02-15T11:26:42;14.25;;;8.73;;
74957;SDS011;63741;42.624;26.276;2023-02-15T11:29:25;13.45;;;7.47;;
74957;SDS011;63741;42.624;26.276;2023-02-15T11:32:03;23.00;;;10.13;;
74957;SDS011;63741;42.624;26.276;2023-02-15T11:34:39;17.25;;;8.43;;
74957;SDS011;63741;42.624;26.276;2023-02-15T11:37:16;14.63;;;7.57;;
74957;SDS011;63741;42.624;26.276;2023-02-15T11:39:46;18.08;;;7.82;;
74957;SDS011;63741;42.624;26.276;2023-02-15T11:42:19;18.50;;;7.88;;
74957;SDS011;63741;42.624;26.276;2023-02-15T11:47:43;12.80;;;7.15;;
74957;SDS011;63741;42.624;26.276;2023-02-15T11:50:17;14.02;;;7.68;;
74957;SDS011;63741;42.624;26.276;2023-02-15T11:52:52;16.38;;;7.38;;
74957;SDS011;63741;42.624;26.276;2023-02-15T11:55:25;13.35;;;7.05;;
74957;SDS011;63741;42.624;26.276;2023-02-15T11:57:57;18.92;;;7.93;;
74957;SDS011;63741;42.624;26.276;2023-02-15T12:03:05;11.07;;;7.25;;
74957;SDS011;63741;42.624;26.276;2023-02-15T12:05:40;17.85;;;8.15;;
74957;SDS011;63741;42.624;26.276;2023-02-15T12:10:42;11.52;;;7.00;;
74957;SDS011;63741;42.624;26.276;2023-02-15T12:13:18;18.50;;;7.78;;
74957;SDS011;63741;42.624;26.276;2023-02-15T12:15:47;11.40;;;7.53;;
74957;SDS011;63741;42.624;26.276;2023-02-15T12:20:46;17.85;;;7.28;;
74957;SDS011;63741;42.624;26.276;2023-02-15T12:23:15;10.30;;;6.50;;
74957;SDS011;63741;42.624;26.276;2023-02-15T12:25:53;14.43;;;7.63;;
74957;SDS011;63741;42.624;26.276;2023-02-15T12:28:35;11.05;;;6.80;;
74957;SDS011;63741;42.624;26.276;2023-02-15T12:33:52;47.90;;;11.88;;
74957;SDS011;63741;42.624;26.276;2023-02-15T12:36:22;20.63;;;8.40;;
74957;SDS011;63741;42.624;26.276;2023-02-15T12:44:28;16.02;;;7.60;;
74957;SDS011;63741;42.624;26.276;2023-02-15T12:49:28;18.70;;;7.07;;
74957;SDS011;63741;42.624;26.276;2023-02-15T12:52:01;11.35;;;6.88;;
74957;SDS011;63741;42.624;26.276;2023-02-15T12:54:38;18.02;;;6.80;;
74957;SDS011;63741;42.624;26.276;2023-02-15T12:57:13;16.10;;;6.68;;
74957;SDS011;63741;42.624;26.276;2023-02-15T12:59:56;13.68;;;6.68;;
74957;SDS011;63741;42.624;26.276;2023-02-15T13:03:04;12.68;;;6.18;;
74957;SDS011;63741;42.624;26.276;2023-02-15T13:05:31;12.23;;;6.47;;
74957;SDS011;63741;42.624;26.276;2023-02-15T13:08:12;13.23;;;6.85;;
74957;SDS011;63741;42.624;26.276;2023-02-15T13:10:53;11.13;;;6.32;;
74957;SDS011;63741;42.624;26.276;2023-02-15T13:13:22;18.08;;;6.45;;
74957;SDS011;63741;42.624;26.276;2023-02-15T13:16:11;24.50;;;6.30;;
74957;SDS011;63741;42.624;26.276;2023-02-15T13:18:42;12.68;;;6.20;;
74957;SDS011;63741;42.624;26.276;2023-02-15T13:21:13;18.80;;;6.43;;
74957;SDS011;63741;42.624;26.276;2023-02-15T13:23:50;11.00;;;5.93;;
74957;SDS011;63741;42.624;26.276;2023-02-15T13:26:23;15.73;;;6.60;;
74957;SDS011;63741;42.624;26.276;2023-02-15T13:28:55;16.30;;;8.02;;
74957;SDS011;63741;42.624;26.276;2023-02-15T13:31:26;13.05;;;7.40;;
74957;SDS011;63741;42.624;26.276;2023-02-15T13:34:12;16.25;;;7.97;;
74957;SDS011;63741;42.624;26.276;2023-02-15T13:39:36;14.98;;;6.90;;
74957;SDS011;63741;42.624;26.276;2023-02-15T13:42:20;22.20;;;11.35;;
74957;SDS011;63741;42.624;26.276;2023-02-15T13:51:29;11.35;;;5.65;;
74957;SDS011;63741;42.624;26.276;2023-02-15T14:01:57;13.75;;;8.35;;
74957;SDS011;63741;42.624;26.276;2023-02-15T14:07:13;42.80;;;15.27;;
74957;SDS011;63741;42.624;26.276;2023-02-15T14:15:13;22.90;;;12.82;;
74957;SDS011;63741;42.624;26.276;2023-02-15T14:17:57;35.90;;;10.35;;
74957;SDS011;63741;42.624;26.276;2023-02-15T14:31:34;14.02;;;7.65;;
74957;SDS011;63741;42.624;26.276;2023-02-15T14:34:07;19.15;;;7.72;;
74957;SDS011;63741;42.624;26.276;2023-02-15T14:36:49;14.77;;;7.72;;
74957;SDS011;63741;42.624;26.276;2023-02-15T14:42:12;39.10;;;7.43;;
74957;SDS011;63741;42.624;26.276;2023-02-15T14:44:43;24.08;;;7.97;;
74957;SDS011;63741;42.624;26.276;2023-02-15T14:47:22;15.07;;;8.82;;
74957;SDS011;63741;42.624;26.276;2023-02-15T14:49:56;15.63;;;7.50;;
74957;SDS011;63741;42.624;26.276;2023-02-15T14:52:23;15.35;;;8.27;;
74957;SDS011;63741;42.624;26.276;2023-02-15T14:54:54;24.80;;;11.70;;
74957;SDS011;63741;42.624;26.276;2023-02-15T14:57:23;22.67;;;13.45;;
74957;SDS011;63741;42.624;26.276;2023-02-15T14:59:54;23.45;;;12.80;;
74957;SDS011;63741;42.624;26.276;2023-02-15T15:05:32;26.25;;;8.40;;
74957;SDS011;63741;42.624;26.276;2023-02-15T15:08:01;15.95;;;8.75;;
74957;SDS011;63741;42.624;26.276;2023-02-15T15:10:35;14.63;;;7.65;;
74957;SDS011;63741;42.624;26.276;2023-02-15T15:19:09;16.98;;;8.30;;
74957;SDS011;63741;42.624;26.276;2023-02-15T15:25:03;20.73;;;7.85;;
74957;SDS011;63741;42.624;26.276;2023-02-15T15:32:54;39.25;;;15.80;;
74957;SDS011;63741;42.624;26.276;2023-02-15T15:35:44;16.30;;;9.30;;
74957;SDS011;63741;42.624;26.276;2023-02-15T15:49:58;37.45;;;20.30;;
74957;SDS011;63741;42.624;26.276;2023-02-15T15:52:26;33.88;;;22.58;;
74957;SDS011;63741;42.624;26.276;2023-02-15T15:54:56;40.70;;;17.60;;
74957;SDS011;63741;42.624;26.276;2023-02-15T15:57:30;30.40;;;14.50;;
74957;SDS011;63741;42.624;26.276;2023-02-15T16:00:00;25.17;;;14.93;;
74957;SDS011;63741;42.624;26.276;2023-02-15T16:02:49;22.33;;;13.82;;
74957;SDS011;63741;42.624;26.276;2023-02-15T16:05:17;32.13;;;16.23;;
74957;SDS011;63741;42.624;26.276;2023-02-15T16:07:44;23.10;;;14.38;;
74957;SDS011;63741;42.624;26.276;2023-02-15T16:12:54;24.65;;;11.68;;
74957;SDS011;63741;42.624;26.276;2023-02-15T16:15:23;85.80;;;31.60;;
74957;SDS011;63741;42.624;26.276;2023-02-15T16:17:54;105.63;;;31.60;;
74957;SDS011;63741;42.624;26.276;2023-02-15T16:20:24;71.47;;;23.50;;
74957;SDS011;63741;42.624;26.276;2023-02-15T16:23:11;25.48;;;13.18;;
74957;SDS011;63741;42.624;26.276;2023-02-15T16:28:17;23.42;;;10.93;;
74957;SDS011;63741;42.624;26.276;2023-02-15T16:30:54;27.55;;;13.93;;
74957;SDS011;63741;42.624;26.276;2023-02-15T16:33:35;21.33;;;11.30;;
74957;SDS011;63741;42.624;26.276;2023-02-15T16:36:04;61.85;;;24.35;;
74957;SDS011;63741;42.624;26.276;2023-02-15T16:41:10;30.65;;;12.10;;
74957;SDS011;63741;42.624;26.276;2023-02-15T16:43:43;33.13;;;12.93;;
74957;SDS011;63741;42.624;26.276;2023-02-15T16:46:14;29.77;;;11.98;;
74957;SDS011;63741;42.624;26.276;2023-02-15T16:48:48;25.77;;;14.35;;
74957;SDS011;63741;42.624;26.276;2023-02-15T16:51:18;26.33;;;14.02;;
74957;SDS011;63741;42.624;26.276;2023-02-15T16:53:48;32.25;;;18.88;;
74957;SDS011;63741;42.624;26.276;2023-02-15T16:56:16;30.13;;;16.42;;
74957;SDS011;63741;42.624;26.276;2023-02-15T16:58:49;34.83;;;17.30;;
74957;SDS011;63741;42.624;26.276;2023-02-15T17:01:19;44.13;;;19.98;;
74957;SDS011;63741;42.624;26.276;2023-02-15T17:03:50;40.88;;;20.08;;
74957;SDS011;63741;42.624;26.276;2023-02-15T17:06:36;28.35;;;15.27;;
74957;SDS011;63741;42.624;26.276;2023-02-15T17:09:04;29.67;;;14.88;;
74957;SDS011;63741;42.624;26.276;2023-02-15T17:11:34;37.58;;;18.38;;
74957;SDS011;63741;42.624;26.276;2023-02-15T17:14:11;28.55;;;14.27;;
74957;SDS011;63741;42.624;26.276;2023-02-15T17:16:59;25.85;;;12.35;;
74957;SDS011;63741;42.624;26.276;2023-02-15T17:19:29;28.48;;;11.35;;
74957;SDS011;63741;42.624;26.276;2023-02-15T17:22:05;27.73;;;13.98;;
74957;SDS011;63741;42.624;26.276;2023-02-15T17:24:43;24.88;;;12.57;;
74957;SDS011;63741;42.624;26.276;2023-02-15T17:29:51;21.33;;;11.20;;
74957;SDS011;63741;42.624;26.276;2023-02-15T17:32:27;135.43;;;46.40;;
74957;SDS011;63741;42.624;26.276;2023-02-15T17:37:45;105.25;;;49.65;;
74957;SDS011;63741;42.624;26.276;2023-02-15T17:42:53;45.55;;;20.48;;
74957;SDS011;63741;42.624;26.276;2023-02-15T17:45:21;33.83;;;17.30;;
74957;SDS011;63741;42.624;26.276;2023-02-15T17:47:51;25.08;;;11.88;;
74957;SDS011;63741;42.624;26.276;2023-02-15T17:50:19;29.10;;;10.43;;
74957;SDS011;63741;42.624;26.276;2023-02-15T17:52:48;22.00;;;10.85;;
74957;SDS011;63741;42.624;26.276;2023-02-15T17:55:18;27.25;;;14.20;;
74957;SDS011;63741;42.624;26.276;2023-02-15T17:58:03;39.55;;;18.38;;
74957;SDS011;63741;42.624;26.276;2023-02-15T18:00:33;37.60;;;18.33;;